Time;durP1;ratioP1;P1;durP2;ratioP2;P2;SDS_P1;SDS_P2;PMS_P1;PMS_P2;Temp;Humidity;BMP_temperature;BMP_pressure;BME280_temperature;BME280_humidity;BME280_pressure;Samples;Min_cycle;Max_cycle;Signal;HPM_P1;HPM_P2
2021/04/09 00:00:47;;;;;;;6.17;3.97;;;2.90;99.90;;;;;;5072812;28;20292;-63
2021/04/09 00:03:14;;;;;;;5.00;3.90;;;2.80;99.90;;;;;;5072681;28;20291;-64
2021/04/09 00:05:41;;;;;;;5.27;3.70;;;2.70;99.90;;;;;;5072902;28;20221;-64
2021/04/09 00:08:08;;;;;;;8.40;4.40;;;2.80;99.90;;;;;;5072494;28;20300;-63
2021/04/09 00:10:35;;;;;;;5.87;3.93;;;2.80;99.90;;;;;;5072356;28;20547;-65
2021/04/09 00:13:03;;;;;;;5.17;3.23;;;2.80;99.90;;;;;;5072741;28;20608;-64
2021/04/09 00:15:30;;;;;;;6.57;3.97;;;2.80;99.90;;;;;;5072278;28;20652;-63
2021/04/09 00:17:57;;;;;;;4.87;3.80;;;2.70;99.90;;;;;;5073735;28;20303;-64
2021/04/09 00:20:25;;;;;;;5.50;3.73;;;2.70;99.90;;;;;;5092693;28;20651;-64
2021/04/09 00:22:53;;;;;;;9.43;4.23;;;2.70;99.90;;;;;;5093024;28;20202;-65
2021/04/09 00:25:21;;;;;;;7.13;3.93;;;2.60;99.90;;;;;;5092410;28;20640;-64
2021/04/09 00:27:48;;;;;;;5.73;4.00;;;2.60;99.90;;;;;;5092578;28;20236;-64
2021/04/09 00:30:22;;;;;;;7.20;4.07;;;2.50;99.90;;;;;;5092733;28;20292;-64
2021/04/09 00:32:48;;;;;;;6.37;4.13;;;2.60;99.90;;;;;;5092871;28;20236;-64
2021/04/09 00:35:17;;;;;;;5.70;4.17;;;2.60;99.90;;;;;;5098013;28;20196;-63
2021/04/09 00:37:44;;;;;;;6.07;4.27;;;2.60;99.90;;;;;;5099343;28;20199;-65
2021/04/09 00:40:11;;;;;;;4.33;3.73;;;2.60;99.90;;;;;;5099245;28;20716;-63
2021/04/09 00:42:40;;;;;;;6.23;3.80;;;2.60;99.90;;;;;;5099281;28;20643;-62
2021/04/09 00:45:08;;;;;;;5.73;4.07;;;2.70;99.90;;;;;;5099391;28;20227;-63
2021/04/09 00:47:36;;;;;;;7.80;4.30;;;2.60;99.90;;;;;;5099527;28;20600;-63
2021/04/09 00:50:03;;;;;;;5.00;3.90;;;2.60;99.90;;;;;;5099246;28;20588;-63
2021/04/09 00:52:33;;;;;;;4.93;3.90;;;2.70;99.90;;;;;;5099642;28;20302;-63
2021/04/09 00:55:01;;;;;;;5.17;4.10;;;2.60;99.90;;;;;;5099873;28;20196;-63
2021/04/09 00:57:28;;;;;;;4.10;3.70;;;2.60;99.90;;;;;;5100151;28;20204;-63
2021/04/09 00:59:56;;;;;;;5.47;4.40;;;2.60;99.90;;;;;;5099504;28;20294;-63
2021/04/09 01:02:23;;;;;;;6.97;4.40;;;2.60;99.90;;;;;;5099285;28;20200;-63
2021/04/09 01:04:51;;;;;;;5.37;3.93;;;2.60;99.90;;;;;;5099430;28;20207;-64
2021/04/09 01:07:18;;;;;;;5.23;4.27;;;2.60;99.90;;;;;;5099144;28;20671;-64
2021/04/09 01:09:45;;;;;;;6.50;4.20;;;2.60;99.90;;;;;;5099219;28;20604;-65
2021/04/09 01:12:12;;;;;;;6.03;4.50;;;2.60;99.90;;;;;;5099382;28;20208;-64
2021/04/09 01:14:39;;;;;;;5.23;4.23;;;2.50;99.90;;;;;;5098982;28;20231;-64
2021/04/09 01:17:13;;;;;;;5.80;4.03;;;2.50;99.90;;;;;;5099363;28;20200;-65
2021/04/09 01:20:10;;;;;;;5.60;3.90;;;2.50;99.90;;;;;;5098818;28;20584;-64
2021/04/09 01:22:43;;;;;;;7.10;4.40;;;2.50;99.90;;;;;;5099272;28;20230;-63
2021/04/09 01:25:37;;;;;;;4.73;4.13;;;2.40;99.90;;;;;;5098778;28;20624;-63
2021/04/09 01:28:13;;;;;;;6.17;4.17;;;2.30;99.90;;;;;;5079602;28;20625;-64
2021/04/09 01:30:56;;;;;;;6.30;4.37;;;2.30;99.90;;;;;;5099174;28;20274;-63
2021/04/09 01:33:27;;;;;;;6.63;4.50;;;2.40;99.90;;;;;;5098690;28;20219;-64
2021/04/09 01:36:07;;;;;;;5.90;4.10;;;2.50;99.90;;;;;;5099106;28;20186;-63
2021/04/09 01:38:40;;;;;;;5.70;4.80;;;2.40;99.90;;;;;;5099056;28;20180;-64
2021/04/09 01:41:09;;;;;;;5.07;4.30;;;2.30;99.90;;;;;;5098910;28;20196;-63
2021/04/09 01:43:38;;;;;;;7.13;4.70;;;2.40;99.90;;;;;;5098488;28;20239;-63
2021/04/09 01:46:06;;;;;;;6.60;4.07;;;2.30;99.90;;;;;;5095741;28;20220;-64
2021/04/09 01:48:36;;;;;;;5.90;4.30;;;2.30;99.90;;;;;;5095539;28;20206;-64
2021/04/09 01:51:07;;;;;;;5.57;4.43;;;2.30;99.90;;;;;;5095729;28;20299;-64
2021/04/09 01:53:35;;;;;;;6.70;4.50;;;2.30;99.90;;;;;;5095725;28;20234;-63
2021/04/09 01:56:03;;;;;;;5.20;4.50;;;2.20;99.90;;;;;;5095522;28;20282;-63
2021/04/09 01:58:30;;;;;;;5.57;4.80;;;2.20;99.90;;;;;;5094957;28;20246;-64
2021/04/09 02:00:58;;;;;;;7.20;4.60;;;2.20;99.90;;;;;;5095434;28;20212;-63
2021/04/09 02:03:26;;;;;;;6.70;4.50;;;2.20;99.90;;;;;;5095350;28;20268;-63
2021/04/09 02:05:55;;;;;;;6.03;4.77;;;2.20;99.90;;;;;;5095209;28;20322;-64
2021/04/09 02:08:24;;;;;;;5.87;4.40;;;2.20;99.90;;;;;;5095406;28;20184;-64
2021/04/09 02:10:55;;;;;;;5.83;4.30;;;2.10;99.90;;;;;;5095217;28;20211;-63
2021/04/09 02:13:24;;;;;;;8.50;4.83;;;2.10;99.90;;;;;;5094907;28;20275;-65
2021/04/09 02:15:54;;;;;;;5.40;4.20;;;2.20;99.90;;;;;;5094858;28;20231;-63
2021/04/09 02:18:21;;;;;;;6.60;4.27;;;2.10;99.90;;;;;;5095007;28;20235;-63
2021/04/09 02:20:49;;;;;;;7.53;4.67;;;2.10;99.90;;;;;;5095146;28;20196;-63
2021/04/09 02:23:17;;;;;;;10.33;5.07;;;2.20;99.90;;;;;;5095044;28;20200;-64
2021/04/09 02:25:43;;;;;;;5.10;4.60;;;2.30;99.90;;;;;;5094480;28;20220;-63
2021/04/09 02:28:11;;;;;;;6.07;4.73;;;2.30;99.90;;;;;;5094269;28;20766;-64
2021/04/09 02:30:38;;;;;;;7.27;5.07;;;2.30;99.90;;;;;;5094742;28;20640;-64
2021/04/09 02:33:05;;;;;;;5.23;4.63;;;2.30;99.90;;;;;;5094432;28;20654;-62
2021/04/09 02:35:32;;;;;;;7.20;4.77;;;2.30;99.90;;;;;;5094601;28;20279;-63
2021/04/09 02:37:59;;;;;;;5.30;4.70;;;2.20;99.90;;;;;;5095020;28;20286;-63
2021/04/09 02:40:32;;;;;;;6.17;5.10;;;2.30;99.90;;;;;;5094321;28;20648;-63
2021/04/09 02:42:59;;;;;;;5.87;4.73;;;2.20;99.90;;;;;;5094641;28;20650;-63
2021/04/09 02:45:26;;;;;;;8.23;4.57;;;2.20;99.90;;;;;;5094376;28;20580;-64
2021/04/09 02:47:57;;;;;;;6.97;5.50;;;2.20;99.90;;;;;;5094432;28;20231;-63
2021/04/09 02:50:30;;;;;;;9.30;5.53;;;2.20;99.90;;;;;;5094473;28;20222;-63
2021/04/09 02:53:01;;;;;;;6.20;4.93;;;2.20;99.90;;;;;;5094253;28;20185;-62
2021/04/09 02:55:41;;;;;;;7.10;5.80;;;2.20;99.90;;;;;;5094514;28;20191;-64
2021/04/09 02:58:10;;;;;;;6.40;5.43;;;2.10;99.90;;;;;;5093905;28;20242;-63
2021/04/09 03:00:38;;;;;;;6.20;5.10;;;2.20;99.90;;;;;;5094303;28;20206;-63
2021/04/09 03:03:05;;;;;;;8.70;5.33;;;2.30;99.90;;;;;;5094168;28;20196;-64
2021/04/09 03:05:33;;;;;;;7.70;5.07;;;2.30;99.90;;;;;;5094203;28;22110;-63
2021/04/09 03:08:00;;;;;;;5.97;5.37;;;2.30;99.90;;;;;;5094441;28;20292;-63
2021/04/09 03:10:27;;;;;;;7.43;5.53;;;2.20;99.90;;;;;;5094486;28;20643;-63
2021/04/09 03:12:55;;;;;;;9.20;5.57;;;2.20;99.90;;;;;;5093778;28;20291;-63
2021/04/09 03:15:25;;;;;;;6.70;4.90;;;2.30;99.90;;;;;;5094568;28;20208;-62
2021/04/09 03:17:57;;;;;;;7.37;5.13;;;2.30;99.90;;;;;;5094124;28;20204;-64
2021/04/09 03:20:24;;;;;;;7.97;4.97;;;2.20;99.90;;;;;;5093998;28;20251;-63
2021/04/09 03:22:52;;;;;;;7.13;6.03;;;2.20;99.90;;;;;;5093873;28;20655;-63
2021/04/09 03:25:19;;;;;;;6.27;5.40;;;2.30;99.90;;;;;;5093925;28;20560;-64
2021/04/09 03:27:46;;;;;;;7.33;5.17;;;2.40;99.90;;;;;;5093386;28;20237;-63
2021/04/09 03:30:16;;;;;;;7.47;5.33;;;2.30;99.90;;;;;;5093779;28;20200;-63
2021/04/09 03:32:43;;;;;;;10.03;5.80;;;2.30;99.90;;;;;;5093281;28;20917;-65
2021/04/09 03:35:11;;;;;;;8.50;5.80;;;2.20;99.90;;;;;;5093724;28;20227;-62
2021/04/09 03:37:38;;;;;;;7.93;5.60;;;2.30;99.90;;;;;;5093767;28;20201;-63
2021/04/09 03:40:06;;;;;;;7.97;5.90;;;2.40;99.90;;;;;;5093776;28;20239;-62
2021/04/09 03:42:33;;;;;;;7.77;6.00;;;2.40;99.90;;;;;;5093119;28;20691;-62
2021/04/09 03:45:00;;;;;;;7.63;5.53;;;2.40;99.90;;;;;;5093402;28;20298;-64
2021/04/09 03:47:28;;;;;;;8.33;5.40;;;2.30;99.90;;;;;;5093623;28;20224;-62
2021/04/09 03:49:55;;;;;;;7.67;6.13;;;2.40;99.90;;;;;;5093659;28;20201;-63
2021/04/09 03:52:22;;;;;;;6.80;6.07;;;2.30;99.90;;;;;;5093612;28;20290;-62
2021/04/09 03:54:49;;;;;;;8.20;5.70;;;2.50;99.90;;;;;;5094079;28;20606;-63
2021/04/09 03:57:16;;;;;;;8.40;6.13;;;2.40;99.90;;;;;;5093784;28;20922;-63
2021/04/09 03:59:43;;;;;;;9.33;6.07;;;2.40;99.90;;;;;;5099911;28;20207;-64
2021/04/09 04:02:10;;;;;;;8.90;5.60;;;2.40;99.90;;;;;;5101181;28;20264;-63
2021/04/09 04:04:38;;;;;;;7.43;5.50;;;2.40;99.90;;;;;;5098754;28;20694;-63
2021/04/09 04:07:06;;;;;;;7.17;5.33;;;2.40;99.90;;;;;;5093875;28;20215;-63
2021/04/09 04:09:33;;;;;;;8.10;5.70;;;2.40;99.90;;;;;;5092579;28;20239;-63
2021/04/09 04:12:00;;;;;;;8.07;5.93;;;2.40;99.90;;;;;;5092949;28;20348;-63
2021/04/09 04:14:27;;;;;;;6.97;5.80;;;2.30;99.90;;;;;;5092776;28;20691;-63
2021/04/09 04:16:54;;;;;;;7.17;5.60;;;2.10;99.90;;;;;;5093285;28;20220;-64
2021/04/09 04:19:20;;;;;;;10.87;6.00;;;2.10;99.90;;;;;;5092577;28;20671;-63
2021/04/09 04:21:50;;;;;;;8.03;5.43;;;2.20;99.90;;;;;;5093071;28;20230;-63
2021/04/09 04:24:17;;;;;;;6.43;5.77;;;2.10;99.90;;;;;;5093073;28;20598;-64
2021/04/09 04:26:44;;;;;;;11.03;6.30;;;2.00;99.90;;;;;;5092159;28;20228;-62
2021/04/09 04:29:11;;;;;;;7.13;5.70;;;2.10;99.90;;;;;;5093057;28;20204;-64
2021/04/09 04:31:38;;;;;;;6.83;6.00;;;2.10;99.90;;;;;;5092647;28;20204;-63
2021/04/09 04:34:05;;;;;;;8.53;6.03;;;2.00;99.90;;;;;;5092673;28;20610;-63
2021/04/09 04:36:31;;;;;;;7.57;5.80;;;2.00;99.90;;;;;;5092679;28;20295;-63
2021/04/09 04:38:59;;;;;;;10.03;5.43;;;2.10;99.90;;;;;;5092619;28;20227;-63
2021/04/09 04:41:26;;;;;;;9.60;6.13;;;2.20;99.90;;;;;;5092391;28;20203;-63
2021/04/09 04:43:53;;;;;;;10.60;5.80;;;2.30;99.90;;;;;;5093192;28;20199;-63
2021/04/09 04:46:20;;;;;;;7.47;6.03;;;2.30;99.90;;;;;;5092669;28;20631;-62
2021/04/09 04:48:47;;;;;;;8.50;5.80;;;2.30;99.90;;;;;;5092794;28;20256;-63
2021/04/09 04:51:13;;;;;;;6.93;6.23;;;2.30;99.90;;;;;;5092774;28;20287;-62
2021/04/09 04:53:40;;;;;;;8.17;6.27;;;2.40;99.90;;;;;;5092793;28;20286;-62
2021/04/09 04:56:08;;;;;;;8.60;6.23;;;2.40;99.90;;;;;;5092118;28;20673;-64
2021/04/09 04:58:35;;;;;;;8.00;6.30;;;2.50;99.90;;;;;;5092855;28;20291;-63
2021/04/09 05:01:02;;;;;;;6.60;5.60;;;2.60;99.90;;;;;;5092745;28;20318;-63
2021/04/09 05:03:28;;;;;;;6.90;5.70;;;2.60;99.90;;;;;;5092362;28;20326;-63
2021/04/09 05:05:55;;;;;;;10.50;6.73;;;2.60;99.90;;;;;;5092385;28;20226;-62
2021/04/09 05:08:23;;;;;;;8.33;6.43;;;2.60;99.90;;;;;;5092235;28;20200;-63
2021/04/09 05:10:50;;;;;;;7.37;5.60;;;2.70;99.90;;;;;;5092074;28;20238;-62
2021/04/09 05:13:17;;;;;;;8.33;5.87;;;2.90;99.90;;;;;;5092511;28;20200;-64
2021/04/09 05:15:45;;;;;;;7.83;6.03;;;2.90;99.90;;;;;;5092086;28;20655;-64
2021/04/09 05:18:12;;;;;;;9.70;6.40;;;3.00;99.90;;;;;;5092152;28;20268;-62
2021/04/09 05:20:38;;;;;;;9.50;5.77;;;3.10;99.90;;;;;;5093911;28;20295;-63
2021/04/09 05:23:05;;;;;;;8.00;6.03;;;3.10;99.90;;;;;;5096009;28;20200;-63
2021/04/09 05:25:32;;;;;;;7.00;5.40;;;3.30;99.90;;;;;;5095849;28;20286;-62
2021/04/09 05:27:59;;;;;;;8.67;5.77;;;3.40;99.90;;;;;;5095933;28;20703;-62
2021/04/09 05:30:27;;;;;;;8.70;5.77;;;3.50;99.90;;;;;;5095837;28;20204;-66
2021/04/09 05:32:54;;;;;;;7.87;6.10;;;3.60;99.90;;;;;;5095422;28;20283;-61
2021/04/09 05:35:22;;;;;;;8.27;6.03;;;3.80;99.90;;;;;;5095908;28;20571;-63
2021/04/09 05:37:49;;;;;;;7.37;5.97;;;4.00;99.90;;;;;;5095705;28;20224;-64
2021/04/09 05:40:21;;;;;;;6.43;5.43;;;4.10;99.90;;;;;;5093588;28;20189;-62
2021/04/09 05:42:55;;;;;;;9.23;5.53;;;4.30;99.90;;;;;;5084886;28;20295;-63
2021/04/09 05:45:23;;;;;;;7.37;5.83;;;4.30;99.90;;;;;;5082034;28;20204;-62
2021/04/09 05:48:01;;;;;;;7.50;5.87;;;4.30;99.90;;;;;;5087776;28;20216;-63
2021/04/09 05:50:28;;;;;;;9.00;6.17;;;4.30;99.90;;;;;;5095195;28;20609;-62
2021/04/09 05:52:55;;;;;;;7.03;5.93;;;4.40;99.90;;;;;;5095221;28;20198;-62
2021/04/09 05:55:22;;;;;;;7.57;5.80;;;4.40;99.90;;;;;;5094006;28;20197;-62
2021/04/09 05:57:49;;;;;;;6.73;6.03;;;4.50;99.90;;;;;;5081407;28;20191;-63
2021/04/09 06:00:17;;;;;;;8.43;6.20;;;4.50;99.90;;;;;;5081390;28;20628;-63
2021/04/09 06:02:44;;;;;;;8.17;6.30;;;4.60;99.90;;;;;;5094587;28;20298;-62
2021/04/09 06:05:12;;;;;;;7.40;6.03;;;4.60;99.90;;;;;;5087879;28;20297;-63
2021/04/09 06:07:39;;;;;;;10.73;6.27;;;4.50;99.90;;;;;;5083202;28;20234;-63
2021/04/09 06:10:08;;;;;;;7.57;5.80;;;4.60;99.90;;;;;;5080329;28;20304;-63
2021/04/09 06:12:38;;;;;;;6.80;6.03;;;4.60;99.90;;;;;;5082671;28;20682;-62
2021/04/09 06:15:07;;;;;;;8.00;6.30;;;4.60;99.90;;;;;;5095129;28;20296;-63
2021/04/09 06:17:34;;;;;;;8.43;5.83;;;4.60;99.90;;;;;;5084921;28;21143;-63
2021/04/09 06:20:01;;;;;;;8.33;6.00;;;4.70;99.90;;;;;;5094150;28;20634;-63
2021/04/09 06:22:29;;;;;;;8.90;5.43;;;4.80;99.90;;;;;;5092566;28;20228;-63
2021/04/09 06:24:55;;;;;;;8.90;6.43;;;4.90;99.90;;;;;;5083334;28;20302;-63
2021/04/09 06:27:24;;;;;;;8.13;6.03;;;5.00;99.90;;;;;;5074073;28;20226;-63
2021/04/09 06:29:51;;;;;;;7.37;5.97;;;5.10;99.90;;;;;;5092422;28;20206;-63
2021/04/09 06:32:18;;;;;;;10.23;6.43;;;5.30;99.90;;;;;;5093218;28;20193;-63
2021/04/09 06:34:45;;;;;;;8.20;6.30;;;5.40;99.90;;;;;;5094321;28;20211;-63
2021/04/09 06:37:12;;;;;;;9.47;6.33;;;5.60;99.90;;;;;;5094833;28;20227;-62
2021/04/09 06:39:40;;;;;;;8.20;5.83;;;5.80;99.90;;;;;;5094110;28;20259;-64
2021/04/09 06:42:08;;;;;;;7.90;6.03;;;6.10;99.90;;;;;;5090303;28;20213;-63
2021/04/09 06:44:35;;;;;;;7.90;5.87;;;6.30;99.90;;;;;;5082956;28;20313;-63
2021/04/09 06:47:03;;;;;;;7.87;6.30;;;6.50;99.90;;;;;;5073754;28;20710;-63
2021/04/09 06:49:30;;;;;;;8.20;5.93;;;6.70;99.90;;;;;;5073802;28;20204;-62
2021/04/09 06:51:57;;;;;;;8.90;6.20;;;6.80;99.90;;;;;;5073740;28;20262;-63
2021/04/09 06:54:25;;;;;;;9.10;5.67;;;7.10;99.90;;;;;;5073825;28;20215;-63
2021/04/09 06:56:55;;;;;;;7.73;5.83;;;7.20;99.90;;;;;;5073951;28;20200;-62
2021/04/09 06:59:29;;;;;;;8.13;5.77;;;7.30;99.90;;;;;;5088094;28;20555;-62
2021/04/09 07:01:57;;;;;;;8.17;6.07;;;7.30;99.90;;;;;;5093957;28;20184;-63
2021/04/09 07:04:25;;;;;;;7.23;5.77;;;7.30;99.90;;;;;;5093837;28;20291;-62
2021/04/09 07:06:52;;;;;;;9.43;5.97;;;7.30;99.90;;;;;;5091987;28;20239;-65
2021/04/09 07:09:19;;;;;;;10.70;6.27;;;7.30;99.90;;;;;;5083023;28;20603;-63
2021/04/09 07:11:52;;;;;;;9.63;6.17;;;7.40;99.90;;;;;;5084847;28;20298;-63
2021/04/09 07:14:20;;;;;;;9.57;6.10;;;7.50;99.90;;;;;;5073324;28;20291;-63
2021/04/09 07:16:56;;;;;;;7.83;5.80;;;7.60;99.90;;;;;;5077354;28;20298;-62
2021/04/09 07:19:32;;;;;;;7.40;6.10;;;7.60;99.90;;;;;;5093857;28;20206;-64
2021/04/09 07:22:05;;;;;;;8.17;6.37;;;7.60;99.90;;;;;;5093916;28;20271;-63
2021/04/09 07:24:33;;;;;;;11.10;5.83;;;7.70;99.90;;;;;;5093332;28;20232;-62
2021/04/09 07:27:00;;;;;;;8.27;6.23;;;7.80;99.90;;;;;;5093391;28;20239;-63
2021/04/09 07:29:40;;;;;;;7.10;5.63;;;7.90;99.90;;;;;;5093380;28;20639;-63
2021/04/09 07:32:35;;;;;;;6.37;5.67;;;8.00;99.90;;;;;;5093753;28;20250;-64
2021/04/09 07:35:07;;;;;;;8.37;6.30;;;8.00;99.90;;;;;;5093482;28;20191;-63
2021/04/09 07:37:48;;;;;;;7.40;6.00;;;8.20;99.90;;;;;;5093459;28;20238;-62
2021/04/09 07:40:16;;;;;;;8.03;5.30;;;8.20;99.90;;;;;;5093141;28;20191;-63
2021/04/09 07:42:44;;;;;;;9.57;6.20;;;8.40;99.90;;;;;;5093467;28;20204;-63
2021/04/09 07:45:13;;;;;;;7.33;6.00;;;8.50;99.90;;;;;;5092438;28;20554;-64
2021/04/09 07:47:52;;;;;;;9.17;5.50;;;8.60;99.90;;;;;;5093364;28;20251;-63
2021/04/09 07:50:19;;;;;;;8.63;5.90;;;8.70;99.90;;;;;;5093113;28;20231;-63
2021/04/09 07:52:49;;;;;;;7.30;5.83;;;8.80;99.90;;;;;;5093388;28;20236;-63
2021/04/09 07:55:19;;;;;;;7.43;5.87;;;8.90;99.90;;;;;;5092447;28;20812;-62
2021/04/09 07:57:47;;;;;;;8.17;5.63;;;9.20;99.90;;;;;;5092837;28;20254;-64
2021/04/09 08:00:26;;;;;;;9.90;6.40;;;9.40;99.90;;;;;;5090226;28;20227;-63
2021/04/09 08:02:55;;;;;;;9.27;5.80;;;9.60;99.90;;;;;;5072659;28;20340;-63
2021/04/09 08:05:25;;;;;;;8.90;6.23;;;9.70;99.90;;;;;;5077882;28;20586;-64
2021/04/09 08:07:53;;;;;;;9.37;6.27;;;9.70;99.90;;;;;;5079073;28;20291;-63
2021/04/09 08:10:26;;;;;;;9.17;6.33;;;9.70;99.90;;;;;;5084204;28;20231;-63
2021/04/09 08:12:54;;;;;;;7.03;5.93;;;9.70;99.90;;;;;;5072501;28;20185;-63
2021/04/09 08:15:24;;;;;;;7.37;5.97;;;9.70;99.90;;;;;;5072765;28;20280;-63
2021/04/09 08:17:59;;;;;;;9.97;6.40;;;9.80;99.90;;;;;;5072440;28;20210;-63
2021/04/09 08:20:28;;;;;;;9.23;6.00;;;9.70;99.90;;;;;;5093016;28;20196;-63
2021/04/09 08:22:58;;;;;;;10.17;6.50;;;9.60;99.90;;;;;;5096443;28;20290;-64
2021/04/09 08:25:27;;;;;;;8.33;6.17;;;9.60;99.90;;;;;;5096854;28;20251;-63
2021/04/09 08:27:54;;;;;;;13.50;7.00;;;9.60;99.90;;;;;;5094132;28;20231;-62
2021/04/09 08:30:23;;;;;;;8.53;6.40;;;9.60;99.90;;;;;;5082284;28;20204;-61
2021/04/09 08:32:53;;;;;;;8.00;6.10;;;9.50;99.90;;;;;;5077904;28;20278;-65
2021/04/09 08:35:21;;;;;;;7.70;6.00;;;9.40;99.90;;;;;;5089149;28;20222;-65
2021/04/09 08:37:48;;;;;;;8.83;6.17;;;9.40;99.90;;;;;;5089041;28;20223;-64
2021/04/09 08:40:18;;;;;;;7.83;5.70;;;9.30;99.90;;;;;;5088709;28;20204;-66
2021/04/09 08:42:45;;;;;;;9.00;6.27;;;9.20;99.90;;;;;;5089351;28;20697;-65
2021/04/09 08:45:13;;;;;;;7.30;5.70;;;9.20;99.90;;;;;;5088497;28;20212;-61
2021/04/09 08:47:43;;;;;;;7.63;6.40;;;9.10;99.90;;;;;;5089615;28;20219;-60
2021/04/09 08:50:12;;;;;;;10.83;6.37;;;9.10;99.90;;;;;;5089692;28;20204;-59
2021/04/09 08:52:41;;;;;;;8.93;5.90;;;9.10;99.90;;;;;;5089181;28;20670;-62
2021/04/09 08:55:09;;;;;;;6.97;5.93;;;9.20;99.90;;;;;;5078737;28;20208;-64
2021/04/09 08:57:38;;;;;;;8.80;6.37;;;9.10;99.90;;;;;;5079802;28;20208;-63
2021/04/09 09:00:10;;;;;;;9.33;6.07;;;9.20;99.90;;;;;;5073407;28;20262;-65
2021/04/09 09:02:43;;;;;;;7.23;5.87;;;9.30;99.90;;;;;;5093409;28;20193;-63
2021/04/09 09:05:13;;;;;;;8.33;6.10;;;9.50;99.90;;;;;;5093620;28;20215;-63
2021/04/09 09:07:58;;;;;;;8.50;6.00;;;9.60;99.90;;;;;;5093730;28;20228;-64
2021/04/09 09:10:45;;;;;;;8.23;6.23;;;9.70;99.90;;;;;;5093591;28;20263;-62
2021/04/09 09:13:25;;;;;;;8.07;6.50;;;9.90;99.90;;;;;;5093137;28;20192;-65
2021/04/09 09:15:56;;;;;;;8.33;5.97;;;10.00;99.90;;;;;;5093580;28;20302;-59
2021/04/09 09:18:47;;;;;;;11.47;6.57;;;10.40;99.90;;;;;;5093133;28;20192;-68
2021/04/09 09:21:38;;;;;;;7.93;6.00;;;10.60;99.90;;;;;;5092943;28;20233;-64
2021/04/09 09:24:20;;;;;;;8.07;6.40;;;10.70;99.90;;;;;;5090810;28;20204;-64
2021/04/09 09:26:49;;;;;;;9.10;6.80;;;10.90;99.90;;;;;;5092635;28;20236;-63
2021/04/09 09:29:19;;;;;;;8.50;6.13;;;11.10;99.90;;;;;;5093092;28;20261;-62
2021/04/09 09:31:59;;;;;;;7.57;6.07;;;11.20;99.90;;;;;;5092610;28;20184;-65
2021/04/09 09:34:45;;;;;;;7.73;5.67;;;11.30;99.90;;;;;;5092288;28;20191;-65
2021/04/09 09:37:18;;;;;;;8.67;5.93;;;11.40;99.90;;;;;;5092384;28;20184;-64
2021/04/09 09:39:47;;;;;;;8.47;6.17;;;11.50;99.90;;;;;;5092326;28;20705;-64
2021/04/09 09:42:42;;;;;;;9.90;6.17;;;11.60;99.90;;;;;;5092864;28;20200;-64
2021/04/09 09:45:11;;;;;;;9.20;6.00;;;11.90;99.90;;;;;;5092334;28;20649;-62
2021/04/09 09:47:41;;;;;;;7.50;6.27;;;12.00;99.90;;;;;;5092418;28;20284;-62
2021/04/09 09:50:25;;;;;;;8.17;6.07;;;12.20;99.90;;;;;;5092241;28;20636;-64
2021/04/09 09:52:58;;;;;;;7.90;5.50;;;12.20;99.90;;;;;;5091682;28;20196;-64
2021/04/09 09:55:30;;;;;;;8.40;4.97;;;12.30;99.90;;;;;;5092350;28;20271;-63
2021/04/09 09:58:03;;;;;;;6.47;4.67;;;12.40;99.90;;;;;;5092384;28;20189;-64
2021/04/09 10:00:33;;;;;;;6.80;4.57;;;12.40;99.90;;;;;;5092532;28;20223;-67
2021/04/09 10:03:14;;;;;;;5.93;5.10;;;12.50;99.90;;;;;;5092459;28;20292;-64
2021/04/09 10:05:43;;;;;;;7.83;5.40;;;12.40;99.90;;;;;;5091621;28;20578;-67
2021/04/09 10:08:11;;;;;;;8.23;5.40;;;12.30;99.90;;;;;;5090848;28;20220;-67
2021/04/09 10:10:40;;;;;;;6.93;5.27;;;12.40;99.90;;;;;;5091640;28;20659;-66
2021/04/09 10:13:22;;;;;;;7.10;5.60;;;12.50;99.90;;;;;;5085530;28;20231;-62
2021/04/09 10:15:51;;;;;;;8.87;5.27;;;12.50;99.90;;;;;;5078772;28;20292;-62
2021/04/09 10:18:21;;;;;;;6.93;5.27;;;12.40;99.90;;;;;;5082760;28;20200;-62
2021/04/09 10:20:50;;;;;;;7.03;5.17;;;12.30;99.90;;;;;;5088129;28;20192;-62
2021/04/09 10:23:23;;;;;;;7.10;5.27;;;12.30;99.90;;;;;;5080394;28;20291;-63
2021/04/09 10:25:53;;;;;;;7.70;5.63;;;12.30;99.90;;;;;;5070629;28;20185;-63
2021/04/09 10:28:21;;;;;;;7.20;5.00;;;12.40;99.90;;;;;;5073611;28;20215;-62
2021/04/09 10:30:52;;;;;;;6.20;5.30;;;12.40;99.90;;;;;;5078621;28;20671;-61
2021/04/09 10:33:35;;;;;;;6.57;5.20;;;12.40;99.90;;;;;;5085433;28;20595;-62
2021/04/09 10:36:14;;;;;;;7.40;4.93;;;12.60;99.90;;;;;;5082826;28;20212;-62
2021/04/09 10:38:41;;;;;;;7.80;5.43;;;12.70;99.90;;;;;;5091788;28;20273;-62
2021/04/09 10:41:08;;;;;;;6.77;5.30;;;12.80;99.90;;;;;;5091358;28;20230;-63
2021/04/09 10:43:36;;;;;;;8.77;5.70;;;12.90;99.90;;;;;;5091578;28;20204;-62
2021/04/09 10:46:12;;;;;;;7.00;5.37;;;13.00;99.90;;;;;;5091724;28;20211;-62
2021/04/09 10:48:40;;;;;;;5.33;4.80;;;13.00;99.90;;;;;;5084988;28;20590;-64
2021/04/09 10:51:07;;;;;;;6.90;5.30;;;12.90;99.90;;;;;;5085604;28;20286;-64
2021/04/09 10:53:39;;;;;;;8.17;5.20;;;12.90;99.90;;;;;;5091235;28;20215;-65
2021/04/09 10:56:07;;;;;;;6.57;5.10;;;13.10;99.90;;;;;;5090770;28;20643;-64
2021/04/09 10:58:36;;;;;;;6.27;5.23;;;13.10;99.90;;;;;;5091356;28;20192;-63
2021/04/09 11:01:03;;;;;;;6.97;5.40;;;13.10;99.90;;;;;;5091186;28;20207;-64
2021/04/09 11:03:31;;;;;;;6.97;5.67;;;13.10;99.90;;;;;;5090641;28;20268;-63
2021/04/09 11:06:00;;;;;;;8.20;5.03;;;13.10;99.90;;;;;;5090701;28;20207;-65
2021/04/09 11:08:31;;;;;;;9.47;5.50;;;13.10;99.90;;;;;;5090862;28;20254;-69
2021/04/09 11:11:05;;;;;;;7.47;5.10;;;13.00;99.90;;;;;;5090945;28;20288;-68
2021/04/09 11:13:33;;;;;;;8.17;5.47;;;12.90;99.90;;;;;;5091149;28;20261;-69
2021/04/09 11:16:01;;;;;;;8.97;5.27;;;12.90;99.90;;;;;;5090731;28;20289;-63
2021/04/09 11:18:48;;;;;;;5.93;5.03;;;12.90;99.90;;;;;;5090528;28;20201;-62
2021/04/09 11:21:15;;;;;;;6.50;5.33;;;13.10;99.90;;;;;;5090755;28;20208;-61
2021/04/09 11:23:42;;;;;;;7.63;5.30;;;13.30;99.90;;;;;;5090824;28;20288;-62
2021/04/09 11:26:19;;;;;;;6.05;5.07;;;13.60;99.90;;;;;;5090271;28;20263;-63
2021/04/09 11:28:53;;;;;;;5.93;5.17;;;13.80;99.90;;;;;;5090488;28;20246;-67
2021/04/09 11:31:25;;;;;;;6.67;5.47;;;14.00;99.90;;;;;;5090302;28;20299;-62
2021/04/09 11:34:03;;;;;;;6.27;5.20;;;14.00;99.90;;;;;;5090243;28;20610;-63
2021/04/09 11:36:38;;;;;;;5.95;5.15;;;14.00;99.90;;;;;;5090261;28;20303;-63
2021/04/09 11:39:07;;;;;;;6.32;5.25;;;14.10;99.80;;;;;;5090410;28;20266;-64
2021/04/09 11:41:35;;;;;;;8.55;5.72;;;14.00;99.20;;;;;;5089965;28;20746;-67
2021/04/09 11:44:25;;;;;;;7.77;5.77;;;13.80;99.10;;;;;;5090283;28;20207;-63
2021/04/09 11:46:53;;;;;;;6.87;5.17;;;13.80;99.90;;;;;;5090310;28;20291;-67
2021/04/09 11:49:29;;;;;;;7.30;5.27;;;13.60;99.90;;;;;;5089889;28;20238;-68
2021/04/09 11:52:00;;;;;;;6.60;5.87;;;13.40;99.90;;;;;;5090207;28;20191;-63
2021/04/09 11:54:35;;;;;;;6.67;5.40;;;13.20;99.90;;;;;;5090203;28;20246;-63
2021/04/09 11:57:02;;;;;;;7.87;5.80;;;13.30;99.90;;;;;;5090028;28;20635;-62
2021/04/09 11:59:34;;;;;;;8.73;5.47;;;13.40;99.90;;;;;;5089880;28;20200;-64
2021/04/09 12:02:17;;;;;;;9.10;5.63;;;13.40;99.90;;;;;;5090050;28;20560;-63
2021/04/09 12:04:44;;;;;;;7.07;5.50;;;13.30;99.90;;;;;;5090356;28;20620;-65
2021/04/09 12:07:14;;;;;;;6.60;5.43;;;13.30;99.90;;;;;;5089228;28;20220;-62
2021/04/09 12:09:42;;;;;;;9.17;5.53;;;13.30;99.90;;;;;;5079643;28;20196;-63
2021/04/09 12:12:12;;;;;;;6.93;5.53;;;13.20;99.90;;;;;;5079515;28;20188;-66
2021/04/09 12:14:41;;;;;;;8.47;5.77;;;13.20;99.90;;;;;;5078575;28;20201;-64
2021/04/09 12:17:11;;;;;;;6.43;5.30;;;13.20;99.90;;;;;;5088771;28;20218;-66
2021/04/09 12:19:40;;;;;;;8.23;5.83;;;13.30;99.90;;;;;;5078468;28;20203;-66
2021/04/09 12:22:08;;;;;;;6.55;5.50;;;13.50;99.90;;;;;;5079948;28;20659;-66
2021/04/09 12:24:36;;;;;;;6.90;5.70;;;13.60;99.90;;;;;;5089299;28;20216;-63
2021/04/09 12:27:05;;;;;;;7.20;5.57;;;13.60;99.70;;;;;;5092554;28;20232;-63
2021/04/09 12:29:32;;;;;;;8.20;5.35;;;13.70;99.90;;;;;;5088722;28;20298;-61
2021/04/09 12:32:00;;;;;;;7.50;5.67;;;13.80;99.90;;;;;;5089066;28;20674;-63
2021/04/09 12:34:27;;;;;;;7.53;6.18;;;13.90;99.60;;;;;;5089421;28;20676;-59
2021/04/09 12:36:55;;;;;;;8.00;5.37;;;14.00;99.90;;;;;;5087697;28;20361;-60
2021/04/09 12:39:24;;;;;;;5.85;5.20;;;14.00;99.30;;;;;;5088950;28;20215;-59
2021/04/09 12:41:53;;;;;;;7.50;5.82;;;14.00;99.60;;;;;;5088090;28;20287;-59
2021/04/09 12:44:20;;;;;;;7.15;5.40;;;14.10;99.50;;;;;;5088549;28;20696;-59
2021/04/09 12:46:48;;;;;;;7.97;6.23;;;14.20;99.90;;;;;;5088436;28;20196;-59
2021/04/09 12:49:16;;;;;;;9.83;8.10;;;14.20;99.30;;;;;;5089045;28;20224;-58
2021/04/09 12:51:43;;;;;;;9.03;5.53;;;14.20;99.20;;;;;;5083552;28;20787;-61
2021/04/09 12:54:11;;;;;;;7.75;5.07;;;14.20;98.30;;;;;;5088774;28;20195;-62
2021/04/09 12:56:38;;;;;;;6.37;5.43;;;14.10;98.40;;;;;;5088445;28;20620;-61
2021/04/09 12:59:05;;;;;;;7.88;5.68;;;14.10;98.00;;;;;;5088011;28;20286;-61
2021/04/09 13:01:32;;;;;;;8.77;6.28;;;14.00;98.50;;;;;;5088648;28;20227;-66
2021/04/09 13:03:59;;;;;;;7.60;5.68;;;14.10;98.80;;;;;;5088094;28;20207;-66
2021/04/09 13:06:26;;;;;;;8.30;5.53;;;14.30;98.80;;;;;;5087520;28;20295;-68